Time;durP1;ratioP1;P1;durP2;ratioP2;P2;SDS_P1;SDS_P2;PMS_P1;PMS_P2;Temp;Humidity;BMP_temperature;BMP_pressure;BME280_temperature;BME280_humidity;BME280_pressure;Samples;Min_cycle;Max_cycle;Signal;HPM_P1;HPM_P2
2021/12/13 00:00:21;;;;;;;0.80;0.60;;;18.20;73.70;;;;;;4958873;28;95326;-41
2021/12/13 00:02:57;;;;;;;1.42;0.50;;;18.30;73.70;;;;;;4958634;28;96137;-42
2021/12/13 00:05:48;;;;;;;1.15;0.88;;;18.30;73.70;;;;;;4958370;28;95254;-44
2021/12/13 00:08:34;;;;;;;0.52;0.40;;;18.30;73.70;;;;;;4958543;28;94997;-41
2021/12/13 00:11:18;;;;;;;0.60;0.57;;;18.40;73.70;;;;;;4957416;28;95495;-43
2021/12/13 00:14:11;;;;;;;1.27;0.63;;;18.40;73.70;;;;;;4957993;28;96177;-43
2021/12/13 00:16:50;;;;;;;1.00;0.60;;;18.50;73.70;;;;;;4957969;28;95269;-42
2021/12/13 00:19:26;;;;;;;2.17;0.50;;;18.50;73.70;;;;;;4958327;28;94922;-44
2021/12/13 00:22:14;;;;;;;1.20;0.40;;;18.50;73.70;;;;;;4958638;28;95074;-45
2021/12/13 00:24:48;;;;;;;1.73;0.55;;;18.60;73.70;;;;;;4958082;28;96442;-43
2021/12/13 00:27:27;;;;;;;1.08;0.60;;;18.60;73.60;;;;;;4958178;28;95818;-43
2021/12/13 00:30:19;;;;;;;0.80;0.70;;;18.70;73.60;;;;;;4958075;28;95017;-42
2021/12/13 00:33:19;;;;;;;0.30;0.30;;;18.70;73.60;;;;;;4957393;28;95460;-45
2021/12/13 00:36:36;;;;;;;0.60;0.60;;;18.80;73.60;;;;;;4953205;28;96328;-43
2021/12/13 00:39:31;;;;;;;0.98;0.63;;;18.80;73.60;;;;;;4955104;28;95381;-42
2021/12/13 00:42:05;;;;;;;0.73;0.50;;;18.90;73.60;;;;;;4958167;28;94970;-44
2021/12/13 00:44:42;;;;;;;0.70;0.70;;;18.90;73.50;;;;;;4958125;28;95156;-41
2021/12/13 00:47:30;;;;;;;0.77;0.77;;;18.90;73.50;;;;;;4957752;28;96022;-44
2021/12/13 00:50:44;;;;;;;0.60;0.40;;;19.00;73.60;;;;;;4959093;28;95328;-42
2021/12/13 00:53:21;;;;;;;0.40;0.40;;;19.00;73.50;;;;;;4959263;28;95031;-43
2021/12/13 00:55:54;;;;;;;0.43;0.43;;;19.10;73.50;;;;;;4959383;28;95279;-41
2021/12/13 00:58:28;;;;;;;1.85;0.60;;;19.10;73.50;;;;;;4958325;28;96005;-41
2021/12/13 01:01:08;;;;;;;0.40;0.40;;;19.20;73.40;;;;;;4959724;28;95256;-46
2021/12/13 01:04:09;;;;;;;0.40;0.40;;;19.20;73.40;;;;;;4962030;28;94953;-42
2021/12/13 01:07:24;;;;;;;0.95;0.57;;;19.20;73.30;;;;;;4961596;28;95260;-44
2021/12/13 01:10:33;;;;;;;0.60;0.50;;;19.30;73.40;;;;;;4961019;28;95845;-41
2021/12/13 01:13:14;;;;;;;0.40;0.30;;;19.40;73.40;;;;;;4960373;28;95227;-44
2021/12/13 01:16:55;;;;;;;0.50;0.50;;;19.40;73.30;;;;;;4961504;28;94927;-41
2021/12/13 01:19:28;;;;;;;0.93;0.43;;;19.50;73.20;;;;;;4951697;28;95420;-44
2021/12/13 01:22:36;;;;;;;0.35;0.35;;;19.50;73.20;;;;;;4959907;28;96811;-44
2021/12/13 01:28:32;;;;;;;0.45;0.43;;;19.60;73.10;;;;;;4961126;28;94927;-42
2021/12/13 01:31:10;;;;;;;0.85;0.52;;;19.70;73.10;;;;;;4960104;28;95244;-41
2021/12/13 01:33:46;;;;;;;1.60;0.40;;;19.70;73.00;;;;;;4960443;28;96022;-43
2021/12/13 01:36:24;;;;;;;0.43;0.43;;;19.80;72.90;;;;;;4956756;28;95940;-46
2021/12/13 01:39:07;;;;;;;0.45;0.45;;;19.80;72.80;;;;;;4958079;28;95381;-43
2021/12/13 01:41:53;;;;;;;0.40;0.40;;;19.90;72.80;;;;;;4960705;28;95153;-42
2021/12/13 01:44:35;;;;;;;0.45;0.45;;;19.90;72.80;;;;;;4960256;28;96418;-42
2021/12/13 01:47:17;;;;;;;2.10;0.50;;;20.00;72.80;;;;;;4960401;28;95797;-43
2021/12/13 01:49:54;;;;;;;0.30;0.30;;;20.00;72.70;;;;;;4961624;28;94993;-41
2021/12/13 01:52:30;;;;;;;0.85;0.50;;;20.10;72.70;;;;;;4961939;28;95175;-46
2021/12/13 01:55:16;;;;;;;0.65;0.57;;;20.10;72.70;;;;;;4961342;28;95924;-45
2021/12/13 01:57:55;;;;;;;0.47;0.30;;;20.20;72.50;;;;;;4961091;28;95307;-44
2021/12/13 02:01:08;;;;;;;1.75;0.50;;;20.20;72.60;;;;;;4991730;28;95209;-43
2021/12/13 02:03:44;;;;;;;0.40;0.40;;;20.30;72.50;;;;;;4960639;28;95376;-42
2021/12/13 02:06:42;;;;;;;;;;;20.30;72.40;;;;;;4960601;28;95927;-45
2021/12/13 02:09:20;;;;;;;1.10;0.55;;;20.40;72.40;;;;;;4959973;28;95894;-39
2021/12/13 02:11:59;;;;;;;1.30;0.40;;;20.40;72.40;;;;;;4959201;28;95034;-44
2021/12/13 02:14:34;;;;;;;0.40;0.40;;;20.50;72.40;;;;;;4960119;28;95199;-43
2021/12/13 02:17:14;;;;;;;0.40;0.40;;;20.50;72.30;;;;;;4989805;28;95345;-43
2021/12/13 02:20:00;;;;;;;0.50;0.50;;;20.60;72.20;;;;;;4960205;28;95796;-42
2021/12/13 02:22:33;;;;;;;0.95;0.60;;;20.60;72.20;;;;;;4959823;28;95067;-43
2021/12/13 02:25:11;;;;;;;0.50;0.50;;;20.70;72.10;;;;;;4960484;28;95146;-42
2021/12/13 02:27:49;;;;;;;0.57;0.57;;;20.70;72.10;;;;;;4959786;28;96283;-41
2021/12/13 02:30:33;;;;;;;0.47;0.47;;;20.80;72.00;;;;;;4960005;28;95761;-43
2021/12/13 02:33:09;;;;;;;0.40;0.30;;;20.80;72.00;;;;;;4960058;28;94957;-44
2021/12/13 02:35:47;;;;;;;0.50;0.50;;;20.90;71.90;;;;;;4955012;28;95230;-44
2021/12/13 02:38:21;;;;;;;0.45;0.30;;;20.90;71.90;;;;;;4956100;28;96036;-45
2021/12/13 02:40:54;;;;;;;0.40;0.40;;;21.00;71.80;;;;;;4959658;28;95879;-43
2021/12/13 02:43:32;;;;;;;0.30;0.30;;;21.00;71.70;;;;;;4959850;28;95006;-42
2021/12/13 02:46:07;;;;;;;1.52;0.50;;;21.10;71.80;;;;;;4960696;28;95223;-42
2021/12/13 02:48:56;;;;;;;0.40;0.40;;;21.10;71.70;;;;;;4960536;28;95880;-45
2021/12/13 02:51:48;;;;;;;0.50;0.43;;;21.20;71.70;;;;;;4960482;28;96057;-44
2021/12/13 02:54:27;;;;;;;0.32;0.32;;;21.20;71.60;;;;;;4961018;28;95063;-45
2021/12/13 02:57:11;;;;;;;1.13;0.60;;;21.20;71.60;;;;;;4960818;28;95318;-44
2021/12/13 02:59:51;;;;;;;0.83;0.60;;;21.30;71.50;;;;;;4959044;28;96460;-43
2021/12/13 03:02:39;;;;;;;0.50;0.50;;;21.40;71.50;;;;;;4958290;28;95239;-46
2021/12/13 03:05:17;;;;;;;0.30;0.30;;;21.40;71.40;;;;;;4960309;28;95113;-43
2021/12/13 03:07:54;;;;;;;0.88;0.80;;;21.50;71.40;;;;;;4960350;28;95167;-45
2021/12/13 03:10:36;;;;;;;0.40;0.40;;;21.50;71.30;;;;;;4959209;28;95889;-45
2021/12/13 03:13:09;;;;;;;0.50;0.40;;;21.60;71.30;;;;;;4958948;28;95326;-46
2021/12/13 03:15:46;;;;;;;0.93;0.47;;;21.60;71.10;;;;;;4959382;28;94935;-46
2021/12/13 03:18:29;;;;;;;0.40;0.40;;;21.70;71.10;;;;;;4959639;28;95159;-41
2021/12/13 03:22:02;;;;;;;0.40;0.40;;;21.70;71.10;;;;;;4959251;28;95935;-44
2021/12/13 03:24:46;;;;;;;0.77;0.40;;;21.80;71.10;;;;;;4934745;28;95430;-46
2021/12/13 03:27:46;;;;;;;0.30;0.30;;;21.80;71.00;;;;;;4959369;28;94938;-45
2021/12/13 03:30:33;;;;;;;0.30;0.30;;;21.80;70.90;;;;;;4958771;28;95369;-40
2021/12/13 03:33:11;;;;;;;0.50;0.50;;;21.90;70.90;;;;;;4958843;28;95859;-44
2021/12/13 03:35:58;;;;;;;0.60;0.60;;;22.00;70.90;;;;;;4956670;28;95246;-40
2021/12/13 03:38:38;;;;;;;0.43;0.43;;;22.00;70.80;;;;;;4955213;28;95364;-41
2021/12/13 03:41:13;;;;;;;0.50;0.50;;;22.10;70.70;;;;;;4959297;28;95122;-44
2021/12/13 03:44:01;;;;;;;0.40;0.40;;;22.10;70.70;;;;;;4958677;28;95892;-45
2021/12/13 03:46:36;;;;;;;0.80;0.40;;;22.10;70.60;;;;;;4959690;28;95393;-46
2021/12/13 03:49:10;;;;;;;0.35;0.32;;;22.20;70.60;;;;;;4960132;28;94959;-45
2021/12/13 03:51:45;;;;;;;0.50;0.50;;;22.20;70.50;;;;;;4960394;28;94720;-46
2021/12/13 03:54:21;;;;;;;1.05;0.47;;;22.30;70.50;;;;;;4959602;28;96168;-40
2021/12/13 03:57:00;;;;;;;0.93;0.50;;;22.30;70.40;;;;;;4959126;28;95810;-44
2021/12/13 03:59:35;;;;;;;0.52;0.50;;;22.40;70.40;;;;;;4957177;28;95018;-44
2021/12/13 04:02:13;;;;;;;0.55;0.50;;;22.40;70.40;;;;;;4956926;28;95379;-44
2021/12/13 04:04:54;;;;;;;1.17;0.47;;;22.50;70.30;;;;;;4957069;28;96594;-44
2021/12/13 04:07:35;;;;;;;0.40;0.40;;;22.50;70.20;;;;;;4957037;28;95169;-45
2021/12/13 04:10:29;;;;;;;0.60;0.60;;;22.60;70.20;;;;;;4958602;28;94941;-44
2021/12/13 04:13:10;;;;;;;0.50;0.50;;;22.60;70.10;;;;;;4958245;28;95350;-44
2021/12/13 04:15:54;;;;;;;0.40;0.40;;;22.60;70.10;;;;;;4958644;28;96011;-45
2021/12/13 04:19:06;;;;;;;0.82;0.38;;;22.70;70.10;;;;;;4958229;28;95199;-44
2021/12/13 04:21:58;;;;;;;0.52;0.52;;;22.70;70.00;;;;;;4958491;28;95057;-45
2021/12/13 04:24:42;;;;;;;0.30;0.30;;;22.80;69.90;;;;;;4958420;28;95314;-45
2021/12/13 04:27:26;;;;;;;0.40;0.40;;;22.80;69.90;;;;;;4957908;28;95896;-43
2021/12/13 04:30:01;;;;;;;0.35;0.35;;;22.90;69.80;;;;;;4957925;28;95239;-46
2021/12/13 04:32:38;;;;;;;0.60;0.50;;;22.90;70.30;;;;;;4957546;28;95069;-44
2021/12/13 04:35:12;;;;;;;1.30;0.50;;;22.90;69.70;;;;;;4955340;28;95712;-45
2021/12/13 04:37:51;;;;;;;0.38;0.38;;;23.00;69.70;;;;;;4953085;28;96099;-43
2021/12/13 04:40:32;;;;;;;0.40;0.40;;;23.00;69.60;;;;;;4941723;28;95231;-42
2021/12/13 04:43:14;;;;;;;0.30;0.30;;;23.00;69.50;;;;;;4958034;28;95091;-46
2021/12/13 04:45:53;;;;;;;0.50;0.50;;;23.10;69.50;;;;;;4958857;28;95183;-46
2021/12/13 04:48:33;;;;;;;0.50;0.35;;;23.10;69.50;;;;;;4958940;28;95940;-42
2021/12/13 04:51:16;;;;;;;0.68;0.68;;;23.10;69.40;;;;;;4957435;28;95595;-42
2021/12/13 04:53:50;;;;;;;0.35;0.35;;;23.10;69.30;;;;;;4959131;28;94930;-42
2021/12/13 04:56:31;;;;;;;0.50;0.50;;;23.20;69.40;;;;;;4959153;28;95273;-45
2021/12/13 04:59:06;;;;;;;0.63;0.50;;;23.20;69.30;;;;;;4956613;28;96078;-43
2021/12/13 05:01:39;;;;;;;0.47;0.47;;;23.20;69.30;;;;;;4957905;28;95431;-42
2021/12/13 05:04:12;;;;;;;0.40;0.40;;;23.20;69.20;;;;;;4957411;28;95045;-45
2021/12/13 05:06:47;;;;;;;0.43;0.43;;;23.20;69.20;;;;;;4958767;28;95174;-43
2021/12/13 05:09:23;;;;;;;0.80;0.40;;;23.20;69.20;;;;;;4958058;28;95726;-46
2021/12/13 05:12:19;;;;;;;1.75;0.40;;;23.30;69.20;;;;;;4957672;28;95163;-43
2021/12/13 05:14:56;;;;;;;0.40;0.40;;;23.30;69.10;;;;;;4957979;28;94945;-47
2021/12/13 05:17:35;;;;;;;1.15;0.38;;;23.30;69.00;;;;;;4956611;28;95175;-43
2021/12/13 05:20:07;;;;;;;0.40;0.40;;;23.40;69.00;;;;;;4957481;28;95911;-43
2021/12/13 05:23:10;;;;;;;0.70;0.50;;;23.40;69.00;;;;;;4955842;28;95886;-46
2021/12/13 05:25:44;;;;;;;0.77;0.40;;;23.40;68.90;;;;;;4957729;28;94989;-45
2021/12/13 05:28:25;;;;;;;0.40;0.40;;;23.40;68.80;;;;;;4956886;28;95173;-47
2021/12/13 05:31:05;;;;;;;0.40;0.40;;;23.50;68.80;;;;;;4956086;28;95849;-46
2021/12/13 05:33:40;;;;;;;0.47;0.40;;;23.50;68.80;;;;;;4957034;28;95443;-46
2021/12/13 05:36:23;;;;;;;0.65;0.30;;;23.60;68.80;;;;;;4951815;28;95270;-46
2021/12/13 05:39:16;;;;;;;0.63;0.40;;;23.60;68.70;;;;;;4955491;28;95270;-42
2021/12/13 05:42:00;;;;;;;0.30;0.30;;;23.60;68.60;;;;;;4957151;28;95947;-41
2021/12/13 05:44:37;;;;;;;0.40;0.40;;;23.60;68.50;;;;;;4956942;28;95283;-47
2021/12/13 05:47:22;;;;;;;0.30;0.30;;;23.70;68.60;;;;;;4959793;28;95269;-45
2021/12/13 05:49:55;;;;;;;0.30;0.30;;;23.70;68.50;;;;;;4961588;28;95357;-41
2021/12/13 05:52:40;;;;;;;0.52;0.50;;;23.70;68.50;;;;;;4960821;28;96576;-45
2021/12/13 05:55:18;;;;;;;0.35;0.35;;;23.70;68.50;;;;;;4961503;28;95218;-46
2021/12/13 05:57:52;;;;;;;0.38;0.38;;;23.70;68.40;;;;;;4961128;28;94938;-46
2021/12/13 06:00:34;;;;;;;1.67;0.60;;;23.80;68.50;;;;;;4961087;28;95541;-42
2021/12/13 06:03:16;;;;;;;0.40;0.40;;;23.80;68.30;;;;;;4959241;28;96077;-44
2021/12/13 06:05:52;;;;;;;0.70;0.43;;;23.80;68.30;;;;;;4960856;28;95582;-46
2021/12/13 06:08:31;;;;;;;0.50;0.50;;;23.80;68.30;;;;;;4960708;28;94940;-45
2021/12/13 06:11:09;;;;;;;0.40;0.40;;;23.80;68.30;;;;;;4960085;28;95325;-45
2021/12/13 06:13:50;;;;;;;0.35;0.30;;;23.80;68.20;;;;;;4959671;28;95826;-44
2021/12/13 06:16:25;;;;;;;;;;;23.90;68.30;;;;;;4959364;28;95325;-46
2021/12/13 06:19:12;;;;;;;0.47;0.47;;;23.90;68.30;;;;;;4961972;28;94954;-45
2021/12/13 06:22:07;;;;;;;0.45;0.45;;;23.90;68.30;;;;;;4960664;28;95152;-46
2021/12/13 06:24:44;;;;;;;0.30;0.30;;;23.90;68.20;;;;;;4960125;28;95835;-47
2021/12/13 06:27:30;;;;;;;0.47;0.47;;;23.90;68.10;;;;;;4958736;28;95489;-46
2021/12/13 06:30:28;;;;;;;0.38;0.35;;;23.90;68.10;;;;;;4960227;28;94999;-45
2021/12/13 06:33:02;;;;;;;0.57;0.57;;;23.90;68.10;;;;;;4958731;28;95404;-44
2021/12/13 06:35:51;;;;;;;0.40;0.40;;;23.90;68.10;;;;;;4956678;28;96412;-43
2021/12/13 06:38:28;;;;;;;0.32;0.32;;;23.90;68.00;;;;;;4953862;28;95994;-42
2021/12/13 06:41:07;;;;;;;0.60;0.40;;;23.90;68.00;;;;;;4959950;28;95462;-43
2021/12/13 06:43:51;;;;;;;0.52;0.32;;;24.00;68.10;;;;;;4960118;28;95191;-44
2021/12/13 06:46:26;;;;;;;0.30;0.30;;;24.00;68.10;;;;;;4959160;28;95851;-43
2021/12/13 06:49:10;;;;;;;0.30;0.30;;;24.00;68.10;;;;;;4960784;28;95795;-43
2021/12/13 06:51:45;;;;;;;0.30;0.30;;;24.00;68.10;;;;;;4959585;28;94962;-45
2021/12/13 06:54:25;;;;;;;0.30;0.30;;;24.00;68.00;;;;;;4960765;28;95296;-44
2021/12/13 06:57:15;;;;;;;0.25;0.25;;;24.00;68.00;;;;;;4960661;28;95907;-46
2021/12/13 06:59:59;;;;;;;0.43;0.43;;;24.00;68.00;;;;;;4958499;28;95874;-42
2021/12/13 07:02:55;;;;;;;0.30;0.30;;;24.00;68.00;;;;;;4959368;28;95337;-44
2021/12/13 07:05:29;;;;;;;0.40;0.40;;;24.00;67.90;;;;;;4960363;28;95171;-46
2021/12/13 07:08:10;;;;;;;0.68;0.40;;;24.00;68.00;;;;;;4959279;28;95867;-44
2021/12/13 07:10:44;;;;;;;0.20;0.20;;;24.10;68.00;;;;;;4959183;28;95300;-45
2021/12/13 07:13:26;;;;;;;0.43;0.43;;;24.00;67.90;;;;;;4959111;28;94970;-41
2021/12/13 07:16:15;;;;;;;0.35;0.35;;;24.10;68.00;;;;;;4959689;28;95086;-46
2021/12/13 07:19:18;;;;;;;0.40;0.40;;;24.10;68.00;;;;;;4959047;28;95939;-42
2021/12/13 07:21:57;;;;;;;0.45;0.45;;;24.10;68.00;;;;;;4956857;28;95261;-44
2021/12/13 07:24:47;;;;;;;0.55;0.55;;;24.10;67.90;;;;;;4959521;28;94938;-44
2021/12/13 07:27:33;;;;;;;0.30;0.30;;;24.10;68.00;;;;;;4959554;28;95105;-47
2021/12/13 07:30:19;;;;;;;0.30;0.30;;;24.10;68.00;;;;;;4958533;28;96093;-46
2021/12/13 07:33:01;;;;;;;0.35;0.35;;;24.10;67.90;;;;;;4958095;28;102169;-41
2021/12/13 07:35:43;;;;;;;0.30;0.30;;;24.10;67.90;;;;;;4954876;28;95267;-47
2021/12/13 07:38:26;;;;;;;0.40;0.40;;;24.10;67.90;;;;;;4955104;28;95389;-45
2021/12/13 07:41:01;;;;;;;0.30;0.30;;;24.10;67.90;;;;;;4958843;28;96019;-42
2021/12/13 07:43:38;;;;;;;0.35;0.25;;;24.10;67.90;;;;;;4958718;28;95255;-46
2021/12/13 07:46:32;;;;;;;0.68;0.47;;;24.10;67.90;;;;;;4959769;28;94950;-40
2021/12/13 07:49:14;;;;;;;0.50;0.50;;;24.10;67.90;;;;;;4960095;28;95373;-45
2021/12/13 07:51:55;;;;;;;0.60;0.60;;;24.10;67.90;;;;;;4959617;28;95863;-40
2021/12/13 07:54:28;;;;;;;0.57;0.40;;;24.10;67.90;;;;;;4959123;28;95822;-46
2021/12/13 07:57:04;;;;;;;0.38;0.38;;;24.10;67.90;;;;;;4960158;28;94998;-45
2021/12/13 07:59:38;;;;;;;0.40;0.40;;;24.10;67.80;;;;;;4958880;28;95175;-45
2021/12/13 08:02:25;;;;;;;0.45;0.45;;;24.10;67.90;;;;;;4958090;28;95879;-41
2021/12/13 08:05:03;;;;;;;0.38;0.38;;;24.10;67.80;;;;;;4958805;28;95528;-46
2021/12/13 08:07:49;;;;;;;0.43;0.43;;;24.10;67.90;;;;;;4974648;28;95068;-45
2021/12/13 08:10:31;;;;;;;0.40;0.40;;;24.10;67.90;;;;;;4958674;28;95163;-47
2021/12/13 08:13:16;;;;;;;0.30;0.30;;;24.10;67.90;;;;;;4958573;28;95049;-43
2021/12/13 08:15:53;;;;;;;0.65;0.50;;;24.10;67.90;;;;;;4958262;28;95192;-46
2021/12/13 08:18:36;;;;;;;0.55;0.50;;;24.10;67.90;;;;;;4958719;28;94954;-47
2021/12/13 08:21:26;;;;;;;0.30;0.30;;;24.10;67.90;;;;;;4958758;28;95208;-46
2021/12/13 08:24:01;;;;;;;0.38;0.38;;;24.10;67.80;;;;;;4958081;28;95956;-45
2021/12/13 08:26:40;;;;;;;0.25;0.25;;;24.10;67.90;;;;;;4957933;28;95303;-47
2021/12/13 08:29:25;;;;;;;0.85;0.40;;;24.10;67.90;;;;;;4958388;28;95145;-45
2021/12/13 08:32:05;;;;;;;0.47;0.47;;;24.10;67.80;;;;;;4957455;28;95413;-47
2021/12/13 08:34:48;;;;;;;1.00;0.60;;;24.10;67.80;;;;;;4957203;28;96158;-43
2021/12/13 08:37:28;;;;;;;0.98;0.60;;;24.10;67.90;;;;;;4951996;28;95839;-47
2021/12/13 08:40:07;;;;;;;;;;;24.10;67.80;;;;;;4958608;28;94985;-46
2021/12/13 08:42:43;;;;;;;1.58;0.60;;;24.10;67.70;;;;;;4960144;28;95189;-43
2021/12/13 08:45:24;;;;;;;1.60;0.50;;;24.10;68.40;;;;;;4958395;28;96435;-42
2021/12/13 08:48:06;;;;;;;0.40;0.40;;;24.10;67.80;;;;;;4958131;28;95583;-41
2021/12/13 08:50:46;;;;;;;1.30;0.50;;;24.10;67.80;;;;;;4959082;28;94991;-43
2021/12/13 08:53:35;;;;;;;0.40;0.40;;;24.00;67.80;;;;;;4958842;28;95477;-41
2021/12/13 08:56:20;;;;;;;0.47;0.47;;;24.10;67.80;;;;;;4958926;28;96060;-39
2021/12/13 08:58:58;;;;;;;1.38;0.80;;;24.00;67.80;;;;;;4958022;28;95835;-46
2021/12/13 09:01:47;;;;;;;1.00;0.50;;;24.00;67.90;;;;;;4958468;28;95026;-45
2021/12/13 09:04:35;;;;;;;0.30;0.30;;;24.00;67.80;;;;;;4958662;28;95182;-44
2021/12/13 09:07:15;;;;;;;0.47;0.43;;;24.00;67.80;;;;;;4958137;28;96013;-43
2021/12/13 09:09:48;;;;;;;0.43;0.35;;;24.00;67.90;;;;;;4957881;28;95128;-42
2021/12/13 09:12:44;;;;;;;0.70;0.47;;;24.00;68.00;;;;;;4957979;28;94954;-44
2021/12/13 09:15:30;;;;;;;0.55;0.55;;;23.90;68.00;;;;;;4958392;28;95039;-41
2021/12/13 09:18:06;;;;;;;0.60;0.60;;;23.90;67.90;;;;;;4957522;28;95849;-46
2021/12/13 09:20:46;;;;;;;1.50;0.98;;;23.90;68.00;;;;;;4957263;28;95253;-45
2021/12/13 09:23:44;;;;;;;2.15;1.10;;;23.90;68.30;;;;;;4961001;28;95098;-44
2021/12/13 09:26:24;;;;;;;2.17;1.10;;;23.90;68.30;;;;;;4958580;28;95077;-45
2021/12/13 09:29:03;;;;;;;5.35;1.23;;;23.80;68.20;;;;;;4960796;28;95794;-43
2021/12/13 09:31:38;;;;;;;3.80;1.23;;;23.80;68.20;;;;;;4958344;28;95840;-46
2021/12/13 09:34:18;;;;;;;2.65;1.42;;;23.80;68.10;;;;;;4961169;28;94923;-46
2021/12/13 09:36:55;;;;;;;4.53;2.00;;;23.80;68.00;;;;;;4956194;28;95345;-46
2021/12/13 09:39:30;;;;;;;6.20;2.65;;;23.70;67.90;;;;;;4959758;28;95912;-43
2021/12/13 09:42:17;;;;;;;5.57;2.25;;;23.70;67.90;;;;;;4960610;28;95201;-47
2021/12/13 09:45:01;;;;;;;5.28;2.40;;;23.70;68.00;;;;;;4960987;28;94942;-44
2021/12/13 09:47:39;;;;;;;10.93;3.42;;;23.60;67.90;;;;;;4960648;28;95132;-45
2021/12/13 09:50:24;;;;;;;9.77;3.38;;;23.70;68.50;;;;;;4992944;28;99620;-43
2021/12/13 09:53:05;;;;;;;11.35;3.08;;;23.60;67.80;;;;;;4961750;28;95770;-46
2021/12/13 09:55:49;;;;;;;14.07;3.83;;;23.60;67.90;;;;;;4961823;28;95001;-44
2021/12/13 09:58:34;;;;;;;12.50;3.80;;;23.50;67.90;;;;;;4960435;28;95248;-43
2021/12/13 10:01:15;;;;;;;16.20;3.95;;;23.50;68.00;;;;;;4960303;28;96490;-45
2021/12/13 10:03:47;;;;;;;12.80;3.85;;;23.50;68.00;;;;;;4960702;28;95231;-44
2021/12/13 10:06:38;;;;;;;14.07;3.97;;;23.40;68.00;;;;;;4961179;28;94941;-46
2021/12/13 10:09:24;;;;;;;14.10;4.05;;;23.40;68.10;;;;;;4961187;28;95171;-42
2021/12/13 10:12:12;;;;;;;11.45;3.10;;;23.40;68.10;;;;;;4960244;28;96532;-44
2021/12/13 10:14:51;;;;;;;13.93;4.10;;;23.40;68.10;;;;;;4959484;28;95226;-42
2021/12/13 10:17:27;;;;;;;9.65;3.67;;;23.40;68.10;;;;;;4959179;28;95140;-42
2021/12/13 10:20:04;;;;;;;13.60;3.83;;;23.30;68.10;;;;;;4960550;28;95178;-43
2021/12/13 10:22:37;;;;;;;8.30;3.20;;;23.30;68.00;;;;;;4959935;28;95946;-42
2021/12/13 10:25:37;;;;;;;8.30;2.95;;;23.30;68.20;;;;;;4959935;28;95175;-42
2021/12/13 10:28:12;;;;;;;7.38;3.00;;;23.30;68.30;;;;;;4958061;28;95133;-47
2021/12/13 10:31:08;;;;;;;10.93;3.25;;;23.30;68.40;;;;;;4960398;28;95220;-43
2021/12/13 10:33:41;;;;;;;8.43;3.45;;;23.20;68.40;;;;;;4959871;28;95858;-45
2021/12/13 10:36:17;;;;;;;7.22;2.70;;;23.20;68.50;;;;;;4957197;28;95260;-44
2021/12/13 10:38:56;;;;;;;7.53;2.72;;;23.20;68.70;;;;;;4958445;28;95333;-43
2021/12/13 10:41:42;;;;;;;8.65;3.10;;;23.20;68.90;;;;;;4960354;28;95112;-46
2021/12/13 10:44:26;;;;;;;7.47;2.40;;;23.20;69.00;;;;;;4959337;28;96017;-42
2021/12/13 10:47:04;;;;;;;9.00;2.78;;;23.10;69.00;;;;;;4960083;28;95288;-45
2021/12/13 10:49:39;;;;;;;6.05;2.70;;;23.10;69.10;;;;;;4961051;28;94998;-44
2021/12/13 10:52:25;;;;;;;9.57;3.03;;;23.10;69.20;;;;;;4961161;28;95241;-46
2021/12/13 10:55:05;;;;;;;6.60;2.55;;;23.10;69.20;;;;;;4960253;28;96380;-43
2021/12/13 10:57:44;;;;;;;7.13;3.38;;;23.10;69.40;;;;;;4960304;28;95410;-42
2021/12/13 11:00:31;;;;;;;5.82;2.80;;;23.10;69.50;;;;;;4959998;28;94978;-47
2021/12/13 11:03:11;;;;;;;5.20;2.40;;;23.00;69.40;;;;;;4957933;28;95323;-41
2021/12/13 11:05:49;;;;;;;6.68;2.60;;;23.00;69.40;;;;;;4959935;28;95884;-46
2021/12/13 11:08:23;;;;;;;10.77;3.03;;;23.00;69.40;;;;;;4959383;28;95449;-42
2021/12/13 11:11:07;;;;;;;11.43;3.42;;;23.00;69.50;;;;;;4959833;28;94998;-45
2021/12/13 11:13:40;;;;;;;11.20;3.30;;;22.90;69.50;;;;;;4958833;28;95233;-45
2021/12/13 11:16:25;;;;;;;8.75;2.95;;;22.90;69.60;;;;;;4957538;28;97128;-39
2021/12/13 11:18:58;;;;;;;7.78;2.90;;;22.90;69.70;;;;;;4957787;28;95423;-41
2021/12/13 11:21:37;;;;;;;6.93;2.65;;;22.90;69.70;;;;;;4957974;28;94946;-47
2021/12/13 11:24:13;;;;;;;6.35;2.97;;;22.90;69.70;;;;;;4958217;28;95073;-44
2021/12/13 11:26:50;;;;;;;8.43;2.80;;;22.80;69.70;;;;;;4958088;28;96495;-46
2021/12/13 11:29:24;;;;;;;8.95;3.95;;;22.80;69.70;;;;;;4957636;28;95304;-45
2021/12/13 11:32:05;;;;;;;6.90;2.65;;;22.80;69.80;;;;;;4956693;28;94961;-45
2021/12/13 11:35:02;;;;;;;5.35;2.45;;;22.80;69.90;;;;;;4957429;28;95065;-45
2021/12/13 11:37:42;;;;;;;8.35;2.33;;;22.70;69.90;;;;;;4948615;28;97636;-47
2021/12/13 11:40:23;;;;;;;6.97;3.00;;;22.70;69.90;;;;;;4957270;28;95874;-47
2021/12/13 11:43:08;;;;;;;6.07;2.65;;;22.70;70.10;;;;;;4957756;28;95083;-44
2021/12/13 11:46:07;;;;;;;6.55;3.03;;;22.70;70.10;;;;;;4957911;28;95328;-44
2021/12/13 11:49:12;;;;;;;8.18;3.03;;;22.60;70.10;;;;;;4958342;28;95870;-40
2021/12/13 11:52:08;;;;;;;5.30;2.42;;;22.60;70.20;;;;;;4958172;28;95265;-43
2021/12/13 11:55:14;;;;;;;5.40;2.38;;;22.60;70.20;;;;;;4958917;28;94986;-43
2021/12/13 11:58:02;;;;;;;7.15;2.83;;;22.50;70.20;;;;;;4958404;28;95204;-42
2021/12/13 12:00:48;;;;;;;6.57;2.65;;;22.50;70.20;;;;;;4957460;28;95940;-47
2021/12/13 12:03:57;;;;;;;5.22;2.50;;;22.50;70.30;;;;;;4956784;28;95820;-44
2021/12/13 12:07:07;;;;;;;7.20;2.75;;;22.50;70.40;;;;;;4958109;28;94913;-42
2021/12/13 12:10:00;;;;;;;5.28;1.92;;;22.40;70.20;;;;;;4957750;28;95170;-42
2021/12/13 12:12:50;;;;;;;6.53;2.63;;;22.40;70.30;;;;;;4855513;28;2913028;-42
2021/12/13 12:15:26;;;;;;;5.60;2.78;;;22.40;70.20;;;;;;4958379;28;95284;-42
2021/12/13 12:18:04;;;;;;;10.55;2.97;;;22.30;70.20;;;;;;4958245;28;94989;-47
2021/12/13 12:20:40;;;;;;;8.50;3.22;;;22.30;70.10;;;;;;4958688;28;95148;-44
2021/12/13 12:23:25;;;;;;;5.00;2.95;;;22.30;70.20;;;;;;4958197;28;96411;-42
2021/12/13 12:26:01;;;;;;;7.13;2.58;;;22.30;70.20;;;;;;4958200;28;95848;-45
2021/12/13 12:28:34;;;;;;;6.28;2.75;;;22.30;70.30;;;;;;4958341;28;94964;-41
2021/12/13 12:31:07;;;;;;;5.75;2.60;;;22.20;70.30;;;;;;4958359;28;95207;-45
2021/12/13 12:33:42;;;;;;;8.25;2.88;;;22.20;70.30;;;;;;4958090;28;96003;-46
2021/12/13 12:36:41;;;;;;;7.05;2.90;;;22.20;70.40;;;;;;4951421;28;95808;-45
2021/12/13 12:39:36;;;;;;;11.05;3.67;;;22.20;70.40;;;;;;4955919;28;95250;-44
2021/12/13 12:42:20;;;;;;;8.27;2.78;;;22.10;70.30;;;;;;4958518;28;95215;-44
2021/12/13 12:44:56;;;;;;;6.38;2.63;;;22.10;70.30;;;;;;4958090;28;95891;-42
2021/12/13 12:47:36;;;;;;;8.45;2.88;;;22.10;70.40;;;;;;4957462;28;95281;-43
2021/12/13 12:50:43;;;;;;;6.45;3.15;;;22.10;70.50;;;;;;4957845;28;94939;-42
2021/12/13 12:53:43;;;;;;;12.95;3.40;;;22.00;70.50;;;;;;4958419;28;95401;-43
2021/12/13 12:56:41;;;;;;;7.22;2.72;;;22.00;70.50;;;;;;4959691;28;96104;-44
2021/12/13 12:59:32;;;;;;;6.07;2.33;;;22.00;70.50;;;;;;4953420;28;95541;-41
2021/12/13 13:02:10;;;;;;;8.68;2.95;;;22.00;70.60;;;;;;4960941;28;95030;-42
2021/12/13 13:04:53;;;;;;;6.40;2.58;;;22.00;70.70;;;;;;4962091;28;95201;-45
2021/12/13 13:07:43;;;;;;;7.78;3.13;;;21.90;70.70;;;;;;4961359;28;96079;-43
2021/12/13 13:10:26;;;;;;;6.65;2.75;;;21.90;70.80;;;;;;4961077;28;95509;-46
2021/12/13 13:13:11;;;;;;;7.82;2.55;;;21.90;70.70;;;;;;4961153;28;95095;-46
2021/12/13 13:15:49;;;;;;;6.78;2.40;;;21.90;70.60;;;;;;4961536;28;95033;-42
2021/12/13 13:18:25;;;;;;;6.55;2.88;;;21.80;70.60;;;;;;4961119;28;96520;-43
2021/12/13 13:21:04;;;;;;;8.40;3.05;;;21.80;70.70;;;;;;4960878;28;95332;-42
2021/12/13 13:23:44;;;;;;;9.43;3.58;;;21.80;70.80;;;;;;4961210;28;94921;-46
2021/12/13 13:26:18;;;;;;;5.88;2.67;;;21.80;70.90;;;;;;4959976;28;95169;-43
2021/12/13 13:28:57;;;;;;;4.53;2.42;;;21.70;70.90;;;;;;4960802;28;95910;-42
2021/12/13 13:31:34;;;;;;;4.03;2.60;;;21.70;70.90;;;;;;4960726;28;95210;-42
2021/12/13 13:34:09;;;;;;;5.50;2.95;;;21.70;71.00;;;;;;4960946;28;94957;-43
2021/12/13 13:36:46;;;;;;;7.07;3.35;;;21.70;71.00;;;;;;4955761;28;95235;-44
2021/12/13 13:39:29;;;;;;;6.30;2.70;;;21.70;71.00;;;;;;4958771;28;95939;-45
2021/12/13 13:42:26;;;;;;;6.50;2.20;;;21.60;71.00;;;;;;4960729;28;95302;-46
2021/12/13 13:45:06;;;;;;;8.70;3.10;;;21.60;71.10;;;;;;4961233;28;95064;-45
2021/12/13 13:47:44;;;;;;;7.25;2.70;;;21.60;71.10;;;;;;4960428;28;95473;-43
2021/12/13 13:50:21;;;;;;;5.75;3.08;;;21.60;71.10;;;;;;4961771;28;95863;-42
2021/12/13 13:53:08;;;;;;;7.60;3.15;;;21.60;71.10;;;;;;4961441;28;94931;-45
2021/12/13 13:55:52;;;;;;;9.00;2.83;;;21.50;71.00;;;;;;4961310;28;94962;-45
2021/12/13 13:58:36;;;;;;;6.63;2.90;;;21.50;71.10;;;;;;4961269;28;95139;-46
2021/12/13 14:01:16;;;;;;;7.70;2.90;;;21.50;71.20;;;;;;4960643;28;95044;-42
2021/12/13 14:03:56;;;;;;;8.43;2.58;;;21.50;71.20;;;;;;4960750;28;95880;-42
2021/12/13 14:06:41;;;;;;;6.82;2.67;;;21.50;71.20;;;;;;4960564;28;94981;-46
2021/12/13 14:09:16;;;;;;;6.45;2.72;;;21.40;71.20;;;;;;4960771;28;95254;-41
2021/12/13 14:11:55;;;;;;;7.22;2.95;;;21.40;71.30;;;;;;4960327;28;95877;-43